createdAt,value
2022-12-31T00:00:00.392Z,11.95
2022-12-31T00:05:00.500Z,11.98
2022-12-31T00:10:00.619Z,11.96
2022-12-31T00:15:00.432Z,11.92
2022-12-31T00:20:00.462Z,11.85
2022-12-31T00:25:00.502Z,11.70
2022-12-31T00:30:04.513Z,11.61
2022-12-31T00:35:00.510Z,11.52
2022-12-31T00:40:00.456Z,11.45
2022-12-31T00:45:00.469Z,11.39
2022-12-31T00:50:00.528Z,11.34
2022-12-31T00:55:00.626Z,11.29
2022-12-31T01:00:00.425Z,11.25
2022-12-31T01:05:00.398Z,11.22
2022-12-31T01:10:00.377Z,11.24
2022-12-31T01:15:00.435Z,11.25
2022-12-31T01:20:00.444Z,11.27
2022-12-31T01:25:00.403Z,11.27
2022-12-31T01:30:00.484Z,11.22
2022-12-31T01:35:00.418Z,11.23
2022-12-31T01:40:00.441Z,11.22
2022-12-31T01:45:00.425Z,11.20
2022-12-31T01:50:05.925Z,11.18
2022-12-31T01:55:04.884Z,11.16
2022-12-31T02:00:02.992Z,11.14
2022-12-31T02:05:04.499Z,11.15
2022-12-31T02:10:00.735Z,11.15
2022-12-31T02:15:00.542Z,11.08
2022-12-31T02:20:20.346Z,11.06
2022-12-31T02:25:07.778Z,11.02
2022-12-31T02:30:07.852Z,11.00
2022-12-31T02:35:08.256Z,10.96
2022-12-31T02:40:03.193Z,10.90
2022-12-31T02:45:00.406Z,10.84
2022-12-31T02:50:18.004Z,10.83
2022-12-31T02:55:16.677Z,10.80
2022-12-31T03:00:05.614Z,10.78
2022-12-31T03:05:02.171Z,10.76
2022-12-31T03:10:00.690Z,10.71
2022-12-31T03:15:00.416Z,10.68
2022-12-31T03:20:00.556Z,10.66
2022-12-31T03:25:03.353Z,10.69
2022-12-31T03:30:00.479Z,10.72
2022-12-31T03:35:00.619Z,10.74
2022-12-31T03:40:00.421Z,10.71
2022-12-31T03:45:00.594Z,10.72
2022-12-31T03:50:00.410Z,10.71
2022-12-31T03:55:00.403Z,10.69
2022-12-31T04:00:00.506Z,10.68
2022-12-31T04:05:00.406Z,10.66
2022-12-31T04:10:01.747Z,10.65
2022-12-31T04:15:00.592Z,10.66
2022-12-31T04:20:00.597Z,10.66
2022-12-31T04:25:00.458Z,10.65
2022-12-31T04:30:00.449Z,10.65
2022-12-31T04:35:00.452Z,10.65
2022-12-31T04:40:05.737Z,10.64
2022-12-31T04:45:00.368Z,10.64
2022-12-31T04:50:00.490Z,10.65
2022-12-31T04:55:00.413Z,10.66
2022-12-31T05:00:00.459Z,10.68
2022-12-31T05:05:00.430Z,10.72
2022-12-31T05:10:00.365Z,10.78
2022-12-31T05:15:00.474Z,10.84
2022-12-31T05:20:00.378Z,10.88
2022-12-31T05:25:00.379Z,10.94
2022-12-31T05:30:00.534Z,10.98
2022-12-31T05:35:00.443Z,11.03
2022-12-31T05:40:00.447Z,11.07
2022-12-31T05:45:00.361Z,11.11
2022-12-31T05:50:00.391Z,11.15
2022-12-31T05:55:00.584Z,11.15
2022-12-31T06:00:00.482Z,11.15
2022-12-31T06:05:00.480Z,11.16
2022-12-31T06:10:00.430Z,11.16
2022-12-31T06:15:00.407Z,11.18
2022-12-31T06:20:01.244Z,11.22
2022-12-31T06:25:00.416Z,11.26
2022-12-31T06:30:00.367Z,11.39
2022-12-31T06:35:00.455Z,11.59
2022-12-31T06:40:00.648Z,11.83
2022-12-31T06:45:00.387Z,12.00
2022-12-31T06:50:00.417Z,12.19
2022-12-31T06:55:00.639Z,12.30
2022-12-31T07:00:00.878Z,12.35
2022-12-31T07:05:10.944Z,12.38
2022-12-31T07:10:13.616Z,12.40
2022-12-31T07:15:04.969Z,12.39
2022-12-31T07:20:11.373Z,12.39
2022-12-31T07:25:00.616Z,12.40
2022-12-31T07:30:13.949Z,12.45
2022-12-31T07:35:11.361Z,12.55
2022-12-31T07:40:10.541Z,12.67
2022-12-31T07:45:11.510Z,12.78
2022-12-31T07:50:00.554Z,12.84
2022-12-31T07:55:00.511Z,12.86
2022-12-31T08:00:12.085Z,12.74
2022-12-31T08:05:01.416Z,12.52
2022-12-31T08:10:04.766Z,12.45
2022-12-31T08:15:00.853Z,12.46
2022-12-31T08:20:00.562Z,12.48
2022-12-31T08:25:20.277Z,12.44
2022-12-31T08:30:08.029Z,12.38
2022-12-31T08:35:15.603Z,12.34
2022-12-31T08:40:20.348Z,12.33
2022-12-31T08:45:20.332Z,12.31
2022-12-31T08:50:00.921Z,12.31
2022-12-31T08:55:00.563Z,12.32
2022-12-31T09:00:05.966Z,12.37
2022-12-31T09:05:20.418Z,12.40
2022-12-31T09:10:15.271Z,12.51
2022-12-31T09:15:17.130Z,12.63
2022-12-31T09:20:00.913Z,12.75
2022-12-31T09:25:00.565Z,12.89
2022-12-31T09:30:05.522Z,13.08
2022-12-31T09:35:10.290Z,13.25
2022-12-31T09:40:17.912Z,13.40
2022-12-31T09:45:13.601Z,13.57
2022-12-31T09:50:20.422Z,13.72
2022-12-31T09:55:11.396Z,13.84
2022-12-31T10:00:11.058Z,13.84
2022-12-31T10:05:17.928Z,13.83
2022-12-31T10:10:20.387Z,13.91
2022-12-31T10:15:17.237Z,14.00
2022-12-31T10:20:13.833Z,14.08
2022-12-31T10:25:20.382Z,14.14
2022-12-31T10:30:12.608Z,14.18
2022-12-31T10:35:17.983Z,14.18
2022-12-31T10:40:12.747Z,14.25
2022-12-31T10:45:20.381Z,14.30
2022-12-31T10:50:20.269Z,14.29
2022-12-31T10:55:20.330Z,14.30
2022-12-31T11:00:10.481Z,14.19
2022-12-31T11:05:20.281Z,14.12
2022-12-31T11:10:11.343Z,14.08
2022-12-31T11:15:17.811Z,14.17
2022-12-31T11:20:10.369Z,14.32
2022-12-31T11:25:10.362Z,14.42
2022-12-31T11:30:09.801Z,14.66
2022-12-31T11:35:15.195Z,14.78
2022-12-31T11:40:10.315Z,14.83
2022-12-31T11:45:20.273Z,14.83
2022-12-31T11:50:20.383Z,14.64
2022-12-31T11:55:04.750Z,14.56
2022-12-31T12:00:13.403Z,14.56
2022-12-31T12:05:08.520Z,14.59
2022-12-31T12:10:09.284Z,14.67
2022-12-31T12:15:06.843Z,14.57
2022-12-31T12:20:12.345Z,14.44
2022-12-31T12:25:06.147Z,14.35
2022-12-31T12:30:16.604Z,14.26
2022-12-31T12:35:00.385Z,14.21
2022-12-31T12:40:03.470Z,14.20
2022-12-31T12:45:02.501Z,14.20
2022-12-31T12:50:00.600Z,14.24
2022-12-31T12:55:20.295Z,14.27
2022-12-31T13:00:11.735Z,14.33
2022-12-31T13:05:24.474Z,14.38
2022-12-31T13:10:14.905Z,14.37
2022-12-31T13:15:11.342Z,14.39
2022-12-31T13:20:11.105Z,14.32
2022-12-31T13:25:16.282Z,14.22
2022-12-31T13:30:08.262Z,14.15
2022-12-31T13:35:14.224Z,14.10
2022-12-31T13:40:06.294Z,14.01
2022-12-31T13:45:08.424Z,13.98
2022-12-31T13:50:14.533Z,13.96
2022-12-31T13:55:12.372Z,14.02
2022-12-31T14:00:20.304Z,14.01
2022-12-31T14:05:10.307Z,14.07
2022-12-31T14:10:00.586Z,14.17
2022-12-31T14:15:20.378Z,14.24
2022-12-31T14:20:11.346Z,14.28
2022-12-31T14:25:04.427Z,14.41
2022-12-31T14:30:05.436Z,14.44
2022-12-31T14:35:11.355Z,14.45
2022-12-31T14:40:15.678Z,14.45
2022-12-31T14:45:18.343Z,14.41
2022-12-31T14:50:12.048Z,14.35
2022-12-31T14:55:01.989Z,14.39
2022-12-31T15:00:11.669Z,14.45
2022-12-31T15:05:12.971Z,14.55
2022-12-31T15:10:20.269Z,14.65
2022-12-31T15:15:17.954Z,14.67
2022-12-31T15:20:16.989Z,14.65
2022-12-31T15:25:01.075Z,14.71
2022-12-31T15:30:01.165Z,14.80
2022-12-31T15:35:02.024Z,14.80
2022-12-31T15:40:18.506Z,14.77
2022-12-31T15:45:06.243Z,14.85
2022-12-31T15:50:04.614Z,14.80
2022-12-31T15:55:05.363Z,14.85
2022-12-31T16:00:06.344Z,14.84
2022-12-31T16:05:00.566Z,14.92
2022-12-31T16:10:02.955Z,14.91
2022-12-31T16:15:01.131Z,14.87
2022-12-31T16:20:11.474Z,14.78
2022-12-31T16:25:30.060Z,14.74
2022-12-31T16:30:01.920Z,14.71
2022-12-31T16:35:00.467Z,14.81
2022-12-31T16:40:19.726Z,14.75
2022-12-31T16:45:20.278Z,14.77
2022-12-31T16:50:05.985Z,14.80
2022-12-31T16:55:00.777Z,14.78
2022-12-31T17:00:05.497Z,14.77
2022-12-31T17:05:00.968Z,14.74
2022-12-31T17:10:13.723Z,14.65
2022-12-31T17:15:01.967Z,14.70
2022-12-31T17:20:03.909Z,14.60
2022-12-31T17:25:04.402Z,14.65
2022-12-31T17:30:20.330Z,14.58
2022-12-31T17:35:00.709Z,14.55
2022-12-31T17:40:24.658Z,14.57
2022-12-31T17:45:04.772Z,14.57
2022-12-31T17:50:07.909Z,14.65
2022-12-31T17:55:00.452Z,14.69
2022-12-31T18:00:03.519Z,14.73
2022-12-31T18:05:00.424Z,14.69
2022-12-31T18:10:00.395Z,14.66
2022-12-31T18:15:00.420Z,14.72
2022-12-31T18:20:05.368Z,14.82
2022-12-31T18:25:01.222Z,14.90
2022-12-31T18:30:05.052Z,14.89
2022-12-31T18:35:00.408Z,14.89
2022-12-31T18:40:00.439Z,14.89
2022-12-31T18:45:00.418Z,14.92
2022-12-31T18:50:00.391Z,14.88
2022-12-31T18:55:00.398Z,14.94
2022-12-31T19:00:00.492Z,14.92
2022-12-31T19:05:00.373Z,14.93
2022-12-31T19:10:00.440Z,14.94
2022-12-31T19:15:00.404Z,14.94
2022-12-31T19:20:00.371Z,14.96
2022-12-31T19:25:00.461Z,14.92
2022-12-31T19:30:00.477Z,14.87
2022-12-31T19:35:00.404Z,14.74
2022-12-31T19:40:00.440Z,14.68
2022-12-31T19:45:00.447Z,14.65
2022-12-31T19:50:00.503Z,14.65
2022-12-31T19:55:00.367Z,14.58
2022-12-31T20:00:00.389Z,14.63
2022-12-31T20:05:00.494Z,14.68
2022-12-31T20:10:00.435Z,14.72
2022-12-31T20:15:00.491Z,14.73
2022-12-31T20:20:00.395Z,14.75
2022-12-31T20:25:00.624Z,14.73
2022-12-31T20:30:00.378Z,14.74
2022-12-31T20:35:00.604Z,14.86
2022-12-31T20:40:00.419Z,14.92
2022-12-31T20:45:00.488Z,14.96
2022-12-31T20:50:11.705Z,14.96
2022-12-31T20:55:00.392Z,14.92
2022-12-31T21:00:01.453Z,14.89
2022-12-31T21:05:00.552Z,14.87
2022-12-31T21:10:00.481Z,14.77
2022-12-31T21:15:00.467Z,14.86
2022-12-31T21:20:00.377Z,14.96
2022-12-31T21:25:01.047Z,15.00
2022-12-31T21:30:19.575Z,15.02
2022-12-31T21:35:40.305Z,15.16
2022-12-31T21:40:00.356Z,15.16
2022-12-31T21:45:00.494Z,15.19
2022-12-31T21:50:00.375Z,15.12
2022-12-31T21:55:01.931Z,15.17
2022-12-31T22:00:31.935Z,15.09
2022-12-31T22:05:02.251Z,15.15
2022-12-31T22:10:00.683Z,15.18
2022-12-31T22:15:14.695Z,15.08
2022-12-31T22:20:25.869Z,15.14
2022-12-31T22:25:00.401Z,15.21
2022-12-31T22:30:00.403Z,15.14
2022-12-31T22:35:00.358Z,15.14
2022-12-31T22:40:00.407Z,15.18
2022-12-31T22:45:00.537Z,15.22
2022-12-31T22:50:00.482Z,15.19
2022-12-31T22:55:00.479Z,15.13
2022-12-31T23:00:00.421Z,15.06
2022-12-31T23:05:15.726Z,15.03
2022-12-31T23:10:00.378Z,15.04
2022-12-31T23:15:00.497Z,15.07
2022-12-31T23:20:01.400Z,15.14
2022-12-31T23:25:00.435Z,15.19
2022-12-31T23:30:00.414Z,15.22
2022-12-31T23:35:03.292Z,15.26
2022-12-31T23:40:00.420Z,15.21
2022-12-31T23:45:00.497Z,15.14
2022-12-31T23:50:00.370Z,15.14
2022-12-31T23:55:00.460Z,15.12
